sensor_id;sensor_type;location;lat;lon;timestamp;pressure;altitude;pressure_sealevel;temperature;humidity
51053;BME280;37093;37.716;-122.060;2023-01-27T00:02:25;101165.95;;;21.84;16.85
51053;BME280;37093;37.716;-122.060;2023-01-27T00:04:53;101161.42;;;21.30;18.17
51053;BME280;37093;37.716;-122.060;2023-01-27T00:07:22;101166.01;;;21.55;17.59
51053;BME280;37093;37.716;-122.060;2023-01-27T00:09:50;101161.16;;;21.82;18.46
51053;BME280;37093;37.716;-122.060;2023-01-27T00:12:20;101160.77;;;21.70;19.08
51053;BME280;37093;37.716;-122.060;2023-01-27T00:14:49;101158.00;;;22.03;18.39
51053;BME280;37093;37.716;-122.060;2023-01-27T00:17:17;101153.16;;;22.51;17.66
51053;BME280;37093;37.716;-122.060;2023-01-27T00:19:46;101154.28;;;21.82;18.33
51053;BME280;37093;37.716;-122.060;2023-01-27T00:22:14;101153.69;;;22.04;16.96
51053;BME280;37093;37.716;-122.060;2023-01-27T00:24:43;101154.24;;;21.82;17.91
51053;BME280;37093;37.716;-122.060;2023-01-27T00:27:12;101153.50;;;21.85;17.21
51053;BME280;37093;37.716;-122.060;2023-01-27T00:29:40;101151.17;;;22.26;17.24
51053;BME280;37093;37.716;-122.060;2023-01-27T00:32:09;101150.70;;;22.08;18.07
51053;BME280;37093;37.716;-122.060;2023-01-27T00:34:38;101149.38;;;22.14;17.35
51053;BME280;37093;37.716;-122.060;2023-01-27T00:37:07;101147.89;;;22.13;17.44
51053;BME280;37093;37.716;-122.060;2023-01-27T00:39:35;101141.54;;;22.15;17.59
51053;BME280;37093;37.716;-122.060;2023-01-27T00:42:03;101143.63;;;21.96;18.68
51053;BME280;37093;37.716;-122.060;2023-01-27T00:44:32;101146.17;;;21.86;18.05
51053;BME280;37093;37.716;-122.060;2023-01-27T00:47:00;101144.91;;;21.80;17.92
51053;BME280;37093;37.716;-122.060;2023-01-27T00:49:29;101145.29;;;21.89;19.62
51053;BME280;37093;37.716;-122.060;2023-01-27T00:51:57;101144.19;;;21.85;19.12
51053;BME280;37093;37.716;-122.060;2023-01-27T00:54:26;101140.12;;;21.91;19.22
51053;BME280;37093;37.716;-122.060;2023-01-27T00:56:54;101139.94;;;21.89;20.54
51053;BME280;37093;37.716;-122.060;2023-01-27T00:59:23;101142.46;;;21.77;20.32
51053;BME280;37093;37.716;-122.060;2023-01-27T01:01:51;101144.22;;;21.99;18.86
51053;BME280;37093;37.716;-122.060;2023-01-27T01:04:20;101143.63;;;21.99;19.13
51053;BME280;37093;37.716;-122.060;2023-01-27T01:06:49;101141.67;;;21.92;20.17
51053;BME280;37093;37.716;-122.060;2023-01-27T01:09:17;101143.61;;;21.41;22.22
51053;BME280;37093;37.716;-122.060;2023-01-27T01:11:45;101148.05;;;21.74;21.36
51053;BME280;37093;37.716;-122.060;2023-01-27T01:14:14;101153.40;;;21.97;22.08
51053;BME280;37093;37.716;-122.060;2023-01-27T01:16:43;101151.79;;;21.80;21.11
51053;BME280;37093;37.716;-122.060;2023-01-27T01:19:11;101151.87;;;21.53;22.19
51053;BME280;37093;37.716;-122.060;2023-01-27T01:21:40;101155.46;;;22.02;23.95
51053;BME280;37093;37.716;-122.060;2023-01-27T01:24:08;101151.58;;;21.46;21.31
51053;BME280;37093;37.716;-122.060;2023-01-27T01:26:37;101152.14;;;21.66;22.25
51053;BME280;37093;37.716;-122.060;2023-01-27T01:29:05;101149.65;;;21.79;22.18
51053;BME280;37093;37.716;-122.060;2023-01-27T01:31:34;101154.82;;;21.49;21.13
51053;BME280;37093;37.716;-122.060;2023-01-27T01:34:02;101155.29;;;21.64;20.60
51053;BME280;37093;37.716;-122.060;2023-01-27T01:36:31;101154.29;;;21.22;22.01
51053;BME280;37093;37.716;-122.060;2023-01-27T01:39:00;101149.53;;;21.10;21.41
51053;BME280;37093;37.716;-122.060;2023-01-27T01:41:29;101153.82;;;21.11;22.07
51053;BME280;37093;37.716;-122.060;2023-01-27T01:43:57;101152.72;;;20.89;21.70
51053;BME280;37093;37.716;-122.060;2023-01-27T01:46:25;101153.32;;;21.33;20.88
51053;BME280;37093;37.716;-122.060;2023-01-27T01:48:56;101153.82;;;20.99;21.75
51053;BME280;37093;37.716;-122.060;2023-01-27T01:51:29;101157.30;;;20.95;21.55
51053;BME280;37093;37.716;-122.060;2023-01-27T01:54:02;101165.34;;;21.08;20.63
51053;BME280;37093;37.716;-122.060;2023-01-27T01:56:35;101161.51;;;20.88;21.60
51053;BME280;37093;37.716;-122.060;2023-01-27T01:59:08;101159.17;;;20.54;21.63
51053;BME280;37093;37.716;-122.060;2023-01-27T02:01:39;101156.21;;;20.63;21.83
51053;BME280;37093;37.716;-122.060;2023-01-27T02:04:12;101153.53;;;20.79;21.95
51053;BME280;37093;37.716;-122.060;2023-01-27T02:06:46;101155.95;;;20.53;21.91
51053;BME280;37093;37.716;-122.060;2023-01-27T02:09:18;101160.48;;;20.72;22.23
51053;BME280;37093;37.716;-122.060;2023-01-27T02:11:47;101153.33;;;20.40;21.71
51053;BME280;37093;37.716;-122.060;2023-01-27T02:14:17;101153.53;;;20.34;22.07
51053;BME280;37093;37.716;-122.060;2023-01-27T02:16:46;101153.79;;;20.29;22.76
51053;BME280;37093;37.716;-122.060;2023-01-27T02:19:20;101156.06;;;20.48;22.23
51053;BME280;37093;37.716;-122.060;2023-01-27T02:21:50;101163.42;;;20.20;23.15
51053;BME280;37093;37.716;-122.060;2023-01-27T02:24:23;101164.27;;;20.39;21.90
51053;BME280;37093;37.716;-122.060;2023-01-27T02:26:57;101162.99;;;20.35;22.09
51053;BME280;37093;37.716;-122.060;2023-01-27T02:29:25;101160.00;;;20.18;21.71
51053;BME280;37093;37.716;-122.060;2023-01-27T02:31:54;101155.18;;;20.15;21.40
51053;BME280;37093;37.716;-122.060;2023-01-27T02:34:26;101157.43;;;19.72;22.55
51053;BME280;37093;37.716;-122.060;2023-01-27T02:36:57;101163.62;;;19.64;22.97
51053;BME280;37093;37.716;-122.060;2023-01-27T02:39:31;101165.08;;;19.78;23.10
51053;BME280;37093;37.716;-122.060;2023-01-27T02:42:04;101166.91;;;19.73;23.24
51053;BME280;37093;37.716;-122.060;2023-01-27T02:44:33;101162.64;;;19.72;23.32
51053;BME280;37093;37.716;-122.060;2023-01-27T02:47:01;101158.78;;;19.17;23.47
51053;BME280;37093;37.716;-122.060;2023-01-27T02:49:30;101159.34;;;19.51;23.50
51053;BME280;37093;37.716;-122.060;2023-01-27T02:51:59;101154.48;;;19.12;23.72
51053;BME280;37093;37.716;-122.060;2023-01-27T02:54:28;101158.19;;;19.35;24.16
51053;BME280;37093;37.716;-122.060;2023-01-27T02:56:56;101160.74;;;19.32;23.17
51053;BME280;37093;37.716;-122.060;2023-01-27T02:59:25;101160.95;;;18.98;23.85
51053;BME280;37093;37.716;-122.060;2023-01-27T03:01:54;101163.65;;;19.11;24.72
51053;BME280;37093;37.716;-122.060;2023-01-27T03:04:22;101157.95;;;19.17;24.16
51053;BME280;37093;37.716;-122.060;2023-01-27T03:06:51;101155.01;;;18.87;24.40
51053;BME280;37093;37.716;-122.060;2023-01-27T03:09:20;101153.54;;;18.76;24.97
51053;BME280;37093;37.716;-122.060;2023-01-27T03:11:49;101154.93;;;18.40;25.18
51053;BME280;37093;37.716;-122.060;2023-01-27T03:14:17;101154.59;;;18.68;26.14
51053;BME280;37093;37.716;-122.060;2023-01-27T03:16:46;101154.18;;;18.46;25.71
51053;BME280;37093;37.716;-122.060;2023-01-27T03:19:14;101151.42;;;18.46;25.29
51053;BME280;37093;37.716;-122.060;2023-01-27T03:21:43;101150.50;;;18.39;26.01
51053;BME280;37093;37.716;-122.060;2023-01-27T03:24:12;101148.97;;;18.69;25.13
51053;BME280;37093;37.716;-122.060;2023-01-27T03:26:40;101148.83;;;18.43;25.73
51053;BME280;37093;37.716;-122.060;2023-01-27T03:29:09;101150.57;;;18.53;25.10
51053;BME280;37093;37.716;-122.060;2023-01-27T03:31:37;101153.01;;;18.33;26.43
51053;BME280;37093;37.716;-122.060;2023-01-27T03:34:06;101156.58;;;18.31;25.97
51053;BME280;37093;37.716;-122.060;2023-01-27T03:36:34;101152.18;;;18.33;25.95
51053;BME280;37093;37.716;-122.060;2023-01-27T03:39:03;101152.03;;;18.54;25.68
51053;BME280;37093;37.716;-122.060;2023-01-27T03:41:32;101152.56;;;18.42;25.58
51053;BME280;37093;37.716;-122.060;2023-01-27T03:44:00;101151.87;;;18.42;25.97
51053;BME280;37093;37.716;-122.060;2023-01-27T03:46:29;101152.17;;;17.94;25.64
51053;BME280;37093;37.716;-122.060;2023-01-27T03:48:58;101150.72;;;17.96;25.78
51053;BME280;37093;37.716;-122.060;2023-01-27T03:51:27;101150.46;;;17.93;25.40
51053;BME280;37093;37.716;-122.060;2023-01-27T03:53:55;101147.12;;;18.10;25.17
51053;BME280;37093;37.716;-122.060;2023-01-27T03:56:24;101142.90;;;17.97;26.06
51053;BME280;37093;37.716;-122.060;2023-01-27T03:58:52;101138.89;;;18.05;25.85
51053;BME280;37093;37.716;-122.060;2023-01-27T04:01:22;101132.72;;;17.97;26.26
51053;BME280;37093;37.716;-122.060;2023-01-27T04:03:52;101133.90;;;17.94;25.98
51053;BME280;37093;37.716;-122.060;2023-01-27T04:06:22;101135.39;;;17.86;25.98
51053;BME280;37093;37.716;-122.060;2023-01-27T04:08:51;101137.95;;;17.70;26.68
51053;BME280;37093;37.716;-122.060;2023-01-27T04:11:21;101137.37;;;17.63;26.06
51053;BME280;37093;37.716;-122.060;2023-01-27T04:13:49;101140.16;;;17.39;27.34
51053;BME280;37093;37.716;-122.060;2023-01-27T04:16:18;101141.65;;;17.26;26.97
51053;BME280;37093;37.716;-122.060;2023-01-27T04:18:46;101138.94;;;17.56;27.08
51053;BME280;37093;37.716;-122.060;2023-01-27T04:21:15;101141.59;;;16.95;27.35
51053;BME280;37093;37.716;-122.060;2023-01-27T04:23:43;101140.77;;;17.29;27.34
51053;BME280;37093;37.716;-122.060;2023-01-27T04:26:12;101141.81;;;17.49;27.55
51053;BME280;37093;37.716;-122.060;2023-01-27T04:28:40;101137.84;;;17.14;27.89
51053;BME280;37093;37.716;-122.060;2023-01-27T04:31:09;101134.39;;;17.16;28.23
51053;BME280;37093;37.716;-122.060;2023-01-27T04:33:37;101133.79;;;17.32;28.02
51053;BME280;37093;37.716;-122.060;2023-01-27T04:36:06;101130.89;;;16.81;27.86
51053;BME280;37093;37.716;-122.060;2023-01-27T04:38:35;101132.79;;;16.87;27.95
51053;BME280;37093;37.716;-122.060;2023-01-27T04:41:03;101133.55;;;16.63;27.99
51053;BME280;37093;37.716;-122.060;2023-01-27T04:43:32;101130.77;;;17.18;27.87
51053;BME280;37093;37.716;-122.060;2023-01-27T04:46:00;101128.60;;;16.80;28.39
51053;BME280;37093;37.716;-122.060;2023-01-27T04:48:29;101128.46;;;17.03;28.33
51053;BME280;37093;37.716;-122.060;2023-01-27T04:50:57;101125.68;;;16.47;28.41
51053;BME280;37093;37.716;-122.060;2023-01-27T04:53:26;101128.15;;;16.82;28.25
51053;BME280;37093;37.716;-122.060;2023-01-27T04:56:01;101125.25;;;16.45;28.57
51053;BME280;37093;37.716;-122.060;2023-01-27T04:58:30;101125.80;;;16.43;29.15
51053;BME280;37093;37.716;-122.060;2023-01-27T05:00:59;101120.23;;;16.29;28.96
51053;BME280;37093;37.716;-122.060;2023-01-27T05:03:28;101124.06;;;16.76;29.14
51053;BME280;37093;37.716;-122.060;2023-01-27T05:05:57;101125.16;;;16.48;29.11
51053;BME280;37093;37.716;-122.060;2023-01-27T05:08:25;101126.94;;;16.47;29.46
51053;BME280;37093;37.716;-122.060;2023-01-27T05:10:54;101126.28;;;16.30;29.55
51053;BME280;37093;37.716;-122.060;2023-01-27T05:13:23;101127.56;;;16.57;29.89
51053;BME280;37093;37.716;-122.060;2023-01-27T05:15:51;101129.08;;;16.15;29.61
51053;BME280;37093;37.716;-122.060;2023-01-27T05:18:30;101123.93;;;16.25;30.02
51053;BME280;37093;37.716;-122.060;2023-01-27T05:20:59;101119.60;;;15.85;30.31
51053;BME280;37093;37.716;-122.060;2023-01-27T05:23:27;101118.26;;;16.21;30.04
51053;BME280;37093;37.716;-122.060;2023-01-27T05:25:56;101117.99;;;15.89;30.20
51053;BME280;37093;37.716;-122.060;2023-01-27T05:28:24;101113.10;;;16.38;30.19
51053;BME280;37093;37.716;-122.060;2023-01-27T05:30:53;101115.27;;;15.87;30.27
51053;BME280;37093;37.716;-122.060;2023-01-27T05:33:26;101113.70;;;15.86;30.69
51053;BME280;37093;37.716;-122.060;2023-01-27T05:35:58;101119.16;;;16.11;30.48
51053;BME280;37093;37.716;-122.060;2023-01-27T05:38:26;101121.39;;;16.20;30.74
51053;BME280;37093;37.716;-122.060;2023-01-27T05:40:57;101127.38;;;15.60;31.04
51053;BME280;37093;37.716;-122.060;2023-01-27T05:43:27;101129.63;;;15.63;30.76
51053;BME280;37093;37.716;-122.060;2023-01-27T05:46:06;101127.92;;;15.72;30.98
51053;BME280;37093;37.716;-122.060;2023-01-27T05:48:35;101122.13;;;15.78;30.96
51053;BME280;37093;37.716;-122.060;2023-01-27T05:51:05;101118.55;;;15.78;31.28
51053;BME280;37093;37.716;-122.060;2023-01-27T05:53:34;101118.25;;;15.63;31.13
51053;BME280;37093;37.716;-122.060;2023-01-27T05:56:02;101114.29;;;15.46;31.16
51053;BME280;37093;37.716;-122.060;2023-01-27T05:58:31;101112.45;;;15.55;31.26
51053;BME280;37093;37.716;-122.060;2023-01-27T06:01:08;101114.67;;;15.59;31.44
51053;BME280;37093;37.716;-122.060;2023-01-27T06:03:37;101113.44;;;15.78;31.05
51053;BME280;37093;37.716;-122.060;2023-01-27T06:06:06;101110.37;;;15.53;30.75
51053;BME280;37093;37.716;-122.060;2023-01-27T06:08:35;101114.73;;;15.57;30.63
51053;BME280;37093;37.716;-122.060;2023-01-27T06:11:05;101114.71;;;15.82;30.66
51053;BME280;37093;37.716;-122.060;2023-01-27T06:13:34;101114.03;;;15.79;31.09
51053;BME280;37093;37.716;-122.060;2023-01-27T06:16:04;101110.82;;;15.75;31.07
51053;BME280;37093;37.716;-122.060;2023-01-27T06:18:33;101110.80;;;15.67;31.00
51053;BME280;37093;37.716;-122.060;2023-01-27T06:21:04;101110.44;;;15.59;31.18
51053;BME280;37093;37.716;-122.060;2023-01-27T06:23:32;101111.94;;;15.56;30.89
51053;BME280;37093;37.716;-122.060;2023-01-27T06:26:02;101105.20;;;15.49;31.49
51053;BME280;37093;37.716;-122.060;2023-01-27T06:28:31;101102.07;;;15.54;32.21
51053;BME280;37093;37.716;-122.060;2023-01-27T06:31:05;101107.14;;;15.55;31.23
51053;BME280;37093;37.716;-122.060;2023-01-27T06:33:34;101109.98;;;15.54;31.66
51053;BME280;37093;37.716;-122.060;2023-01-27T06:36:04;101111.96;;;15.52;31.19
51053;BME280;37093;37.716;-122.060;2023-01-27T06:38:33;101112.95;;;15.29;31.54
51053;BME280;37093;37.716;-122.060;2023-01-27T06:41:01;101117.78;;;15.13;31.71
51053;BME280;37093;37.716;-122.060;2023-01-27T06:43:30;101117.49;;;15.07;32.04
51053;BME280;37093;37.716;-122.060;2023-01-27T06:45:58;101117.84;;;15.23;32.11
51053;BME280;37093;37.716;-122.060;2023-01-27T06:48:28;101114.14;;;15.02;32.04
51053;BME280;37093;37.716;-122.060;2023-01-27T06:50:58;101115.02;;;15.18;32.27
51053;BME280;37093;37.716;-122.060;2023-01-27T06:53:26;101116.61;;;15.18;32.11
51053;BME280;37093;37.716;-122.060;2023-01-27T06:55:56;101120.58;;;14.88;32.45
51053;BME280;37093;37.716;-122.060;2023-01-27T06:58:25;101124.10;;;14.67;32.41
51053;BME280;37093;37.716;-122.060;2023-01-27T07:00:53;101118.71;;;14.99;32.11
51053;BME280;37093;37.716;-122.060;2023-01-27T07:03:22;101110.88;;;15.06;32.04
51053;BME280;37093;37.716;-122.060;2023-01-27T07:05:51;101109.27;;;15.04;32.10
51053;BME280;37093;37.716;-122.060;2023-01-27T07:08:19;101111.03;;;15.08;32.34
51053;BME280;37093;37.716;-122.060;2023-01-27T07:10:48;101110.52;;;15.11;31.95
51053;BME280;37093;37.716;-122.060;2023-01-27T07:13:16;101108.01;;;15.23;32.18
51053;BME280;37093;37.716;-122.060;2023-01-27T07:15:45;101108.95;;;14.91;32.41
51053;BME280;37093;37.716;-122.060;2023-01-27T07:18:13;101109.10;;;14.87;32.83
51053;BME280;37093;37.716;-122.060;2023-01-27T07:20:42;101108.90;;;14.82;32.41
51053;BME280;37093;37.716;-122.060;2023-01-27T07:23:10;101115.59;;;14.76;32.62
51053;BME280;37093;37.716;-122.060;2023-01-27T07:25:39;101114.04;;;14.67;33.03
51053;BME280;37093;37.716;-122.060;2023-01-27T07:28:08;101114.45;;;15.09;33.10
51053;BME280;37093;37.716;-122.060;2023-01-27T07:30:36;101111.74;;;14.77;33.49
51053;BME280;37093;37.716;-122.060;2023-01-27T07:33:05;101109.80;;;14.50;33.86
51053;BME280;37093;37.716;-122.060;2023-01-27T07:35:36;101109.03;;;14.78;33.26
51053;BME280;37093;37.716;-122.060;2023-01-27T07:38:04;101109.05;;;14.84;33.52
51053;BME280;37093;37.716;-122.060;2023-01-27T07:40:33;101111.54;;;14.42;33.16
51053;BME280;37093;37.716;-122.060;2023-01-27T07:43:02;101110.63;;;14.43;32.99
51053;BME280;37093;37.716;-122.060;2023-01-27T07:45:30;101110.45;;;14.40;33.12
51053;BME280;37093;37.716;-122.060;2023-01-27T07:48:01;101108.55;;;14.44;33.30
51053;BME280;37093;37.716;-122.060;2023-01-27T07:50:30;101107.89;;;14.49;33.78
51053;BME280;37093;37.716;-122.060;2023-01-27T07:52:59;101107.28;;;14.98;33.57
51053;BME280;37093;37.716;-122.060;2023-01-27T07:55:28;101106.60;;;14.42;33.49
51053;BME280;37093;37.716;-122.060;2023-01-27T07:57:57;101102.12;;;14.88;33.23
51053;BME280;37093;37.716;-122.060;2023-01-27T08:01:11;101098.80;;;13.72;33.68
51053;BME280;37093;37.716;-122.060;2023-01-27T08:03:40;101095.63;;;13.67;32.61
51053;BME280;37093;37.716;-122.060;2023-01-27T08:06:10;101092.32;;;15.00;31.61
51053;BME280;37093;37.716;-122.060;2023-01-27T08:08:39;101088.61;;;15.63;31.92
51053;BME280;37093;37.716;-122.060;2023-01-27T08:11:11;101084.91;;;14.97;32.43
51053;BME280;37093;37.716;-122.060;2023-01-27T08:13:40;101086.95;;;14.96;33.00
51053;BME280;37093;37.716;-122.060;2023-01-27T08:16:12;101080.47;;;14.46;33.59
51053;BME280;37093;37.716;-122.060;2023-01-27T08:18:41;101078.65;;;14.41;33.74
51053;BME280;37093;37.716;-122.060;2023-01-27T08:21:10;101075.98;;;14.04;34.36
51053;BME280;37093;37.716;-122.060;2023-01-27T08:23:39;101072.43;;;14.37;34.16
51053;BME280;37093;37.716;-122.060;2023-01-27T08:26:08;101071.69;;;14.06;33.90
51053;BME280;37093;37.716;-122.060;2023-01-27T08:28:37;101064.59;;;14.18;34.26
51053;BME280;37093;37.716;-122.060;2023-01-27T08:31:07;101064.56;;;14.13;34.02
51053;BME280;37093;37.716;-122.060;2023-01-27T08:33:37;101066.77;;;14.07;34.68
51053;BME280;37093;37.716;-122.060;2023-01-27T08:36:07;101061.53;;;14.12;34.19
51053;BME280;37093;37.716;-122.060;2023-01-27T08:38:36;101062.00;;;14.42;33.95
51053;BME280;37093;37.716;-122.060;2023-01-27T08:41:06;101065.71;;;14.20;33.93
51053;BME280;37093;37.716;-122.060;2023-01-27T08:43:36;101062.88;;;14.18;33.89
51053;BME280;37093;37.716;-122.060;2023-01-27T08:46:04;101059.49;;;14.14;33.82
51053;BME280;37093;37.716;-122.060;2023-01-27T08:48:33;101062.93;;;14.30;34.13
51053;BME280;37093;37.716;-122.060;2023-01-27T08:51:04;101062.60;;;13.83;34.04
51053;BME280;37093;37.716;-122.060;2023-01-27T08:53:33;101059.35;;;14.11;33.97
51053;BME280;37093;37.716;-122.060;2023-01-27T08:56:04;101054.65;;;14.30;33.65
51053;BME280;37093;37.716;-122.060;2023-01-27T08:58:34;101051.99;;;14.01;34.09
51053;BME280;37093;37.716;-122.060;2023-01-27T09:01:03;101046.35;;;14.20;33.86
51053;BME280;37093;37.716;-122.060;2023-01-27T09:03:33;101041.58;;;13.94;34.00
51053;BME280;37093;37.716;-122.060;2023-01-27T09:06:03;101043.20;;;13.91;33.95
51053;BME280;37093;37.716;-122.060;2023-01-27T09:08:31;101044.15;;;13.91;33.73
51053;BME280;37093;37.716;-122.060;2023-01-27T09:11:06;101046.00;;;14.09;33.51
51053;BME280;37093;37.716;-122.060;2023-01-27T09:13:34;101043.70;;;13.76;34.40
51053;BME280;37093;37.716;-122.060;2023-01-27T09:16:03;101040.01;;;14.00;34.49
51053;BME280;37093;37.716;-122.060;2023-01-27T09:18:32;101038.17;;;13.85;34.90
51053;BME280;37093;37.716;-122.060;2023-01-27T09:21:03;101038.89;;;13.57;33.99
51053;BME280;37093;37.716;-122.060;2023-01-27T09:23:32;101040.01;;;13.88;34.13
51053;BME280;37093;37.716;-122.060;2023-01-27T09:26:01;101043.48;;;14.11;34.42
51053;BME280;37093;37.716;-122.060;2023-01-27T09:28:29;101046.85;;;13.90;33.83
51053;BME280;37093;37.716;-122.060;2023-01-27T09:30:58;101044.55;;;14.06;33.84
51053;BME280;37093;37.716;-122.060;2023-01-27T09:33:27;101040.64;;;13.70;34.03
51053;BME280;37093;37.716;-122.060;2023-01-27T09:35:58;101043.71;;;14.06;34.40
51053;BME280;37093;37.716;-122.060;2023-01-27T09:38:30;101038.63;;;13.85;34.70
51053;BME280;37093;37.716;-122.060;2023-01-27T09:41:44;101040.44;;;13.87;34.18
51053;BME280;37093;37.716;-122.060;2023-01-27T09:44:31;101039.44;;;13.84;34.36
51053;BME280;37093;37.716;-122.060;2023-01-27T09:47:17;101038.52;;;13.44;34.33
51053;BME280;37093;37.716;-122.060;2023-01-27T09:49:58;101034.30;;;13.43;34.25
51053;BME280;37093;37.716;-122.060;2023-01-27T09:52:47;101032.60;;;13.88;34.09
51053;BME280;37093;37.716;-122.060;2023-01-27T09:55:29;101027.11;;;13.74;34.14
51053;BME280;37093;37.716;-122.060;2023-01-27T09:58:04;101026.34;;;14.15;34.06
51053;BME280;37093;37.716;-122.060;2023-01-27T10:00:45;101022.93;;;13.61;33.94
51053;BME280;37093;37.716;-122.060;2023-01-27T10:03:42;101021.75;;;13.64;34.21
51053;BME280;37093;37.716;-122.060;2023-01-27T10:06:33;101022.30;;;13.94;33.91
51053;BME280;37093;37.716;-122.060;2023-01-27T10:09:19;101024.39;;;13.84;34.33
51053;BME280;37093;37.716;-122.060;2023-01-27T10:11:59;101024.92;;;13.86;34.33
51053;BME280;37093;37.716;-122.060;2023-01-27T10:14:40;101023.68;;;13.79;34.39
51053;BME280;37093;37.716;-122.060;2023-01-27T10:17:27;101020.95;;;13.56;34.45
51053;BME280;37093;37.716;-122.060;2023-01-27T10:20:08;101025.33;;;13.79;34.44
51053;BME280;37093;37.716;-122.060;2023-01-27T10:22:48;101019.08;;;13.36;34.55
51053;BME280;37093;37.716;-122.060;2023-01-27T10:25:32;101023.88;;;13.52;34.43
51053;BME280;37093;37.716;-122.060;2023-01-27T10:28:10;101022.40;;;13.51;34.51
51053;BME280;37093;37.716;-122.060;2023-01-27T10:30:43;101021.86;;;13.64;34.79
51053;BME280;37093;37.716;-122.060;2023-01-27T10:33:17;101017.52;;;13.65;34.42
51053;BME280;37093;37.716;-122.060;2023-01-27T10:35:51;101008.75;;;13.63;33.62
51053;BME280;37093;37.716;-122.060;2023-01-27T10:38:35;101010.51;;;13.51;34.46
51053;BME280;37093;37.716;-122.060;2023-01-27T10:41:13;101013.19;;;13.31;34.53
51053;BME280;37093;37.716;-122.060;2023-01-27T10:43:55;101011.78;;;13.16;35.01
51053;BME280;37093;37.716;-122.060;2023-01-27T10:46:35;101006.20;;;13.12;34.51
51053;BME280;37093;37.716;-122.060;2023-01-27T10:49:11;101000.47;;;13.21;34.75
51053;BME280;37093;37.716;-122.060;2023-01-27T10:51:46;100998.40;;;13.17;34.84
51053;BME280;37093;37.716;-122.060;2023-01-27T10:54:24;100996.30;;;13.25;34.65
51053;BME280;37093;37.716;-122.060;2023-01-27T10:56:56;100993.92;;;13.09;34.98
51053;BME280;37093;37.716;-122.060;2023-01-27T10:59:30;100992.47;;;13.27;35.00
51053;BME280;37093;37.716;-122.060;2023-01-27T11:02:06;100989.74;;;13.29;34.88
51053;BME280;37093;37.716;-122.060;2023-01-27T11:04:42;100990.66;;;13.15;34.97
51053;BME280;37093;37.716;-122.060;2023-01-27T11:07:16;100987.04;;;13.43;34.32
51053;BME280;37093;37.716;-122.060;2023-01-27T11:09:51;100985.14;;;13.09;34.49
51053;BME280;37093;37.716;-122.060;2023-01-27T11:12:27;100982.74;;;13.16;34.48
51053;BME280;37093;37.716;-122.060;2023-01-27T11:14:56;100981.99;;;13.46;34.30
51053;BME280;37093;37.716;-122.060;2023-01-27T11:17:31;100975.42;;;13.38;34.21
51053;BME280;37093;37.716;-122.060;2023-01-27T11:20:07;100973.07;;;13.26;34.43
51053;BME280;37093;37.716;-122.060;2023-01-27T11:22:47;100973.10;;;13.17;34.33
51053;BME280;37093;37.716;-122.060;2023-01-27T11:25:24;100970.39;;;13.07;35.33
51053;BME280;37093;37.716;-122.060;2023-01-27T11:27:59;100968.80;;;13.10;35.13
51053;BME280;37093;37.716;-122.060;2023-01-27T11:30:37;100968.18;;;13.13;35.54
51053;BME280;37093;37.716;-122.060;2023-01-27T11:33:15;100966.07;;;13.21;35.08
51053;BME280;37093;37.716;-122.060;2023-01-27T11:35:44;100960.20;;;13.13;34.80
51053;BME280;37093;37.716;-122.060;2023-01-27T11:38:17;100960.91;;;12.95;35.18
51053;BME280;37093;37.716;-122.060;2023-01-27T11:40:48;100964.95;;;12.82;35.55
51053;BME280;37093;37.716;-122.060;2023-01-27T11:43:20;100964.32;;;12.62;35.34
51053;BME280;37093;37.716;-122.060;2023-01-27T11:45:54;100963.97;;;12.95;35.19
51053;BME280;37093;37.716;-122.060;2023-01-27T11:48:26;100965.39;;;12.85;35.44
51053;BME280;37093;37.716;-122.060;2023-01-27T11:50:57;100963.97;;;12.84;35.37
51053;BME280;37093;37.716;-122.060;2023-01-27T11:53:29;100969.82;;;12.20;35.69
51053;BME280;37093;37.716;-122.060;2023-01-27T11:56:01;100967.08;;;12.74;35.42
51053;BME280;37093;37.716;-122.060;2023-01-27T11:58:35;100962.46;;;12.31;35.73
51053;BME280;37093;37.716;-122.060;2023-01-27T12:01:12;100961.22;;;12.40;35.78
51053;BME280;37093;37.716;-122.060;2023-01-27T12:03:50;100954.77;;;12.45;35.70
51053;BME280;37093;37.716;-122.060;2023-01-27T12:06:30;100947.76;;;12.70;35.51
51053;BME280;37093;37.716;-122.060;2023-01-27T12:08:59;100944.41;;;12.95;35.38
51053;BME280;37093;37.716;-122.060;2023-01-27T12:11:30;100942.63;;;13.01;35.45
51053;BME280;37093;37.716;-122.060;2023-01-27T12:14:00;100942.32;;;13.05;35.62
51053;BME280;37093;37.716;-122.060;2023-01-27T12:16:42;100941.98;;;13.06;35.40
51053;BME280;37093;37.716;-122.060;2023-01-27T12:19:23;100937.77;;;13.13;35.01
51053;BME280;37093;37.716;-122.060;2023-01-27T12:21:56;100937.53;;;13.20;34.97
51053;BME280;37093;37.716;-122.060;2023-01-27T12:24:28;100934.88;;;13.03;34.83
51053;BME280;37093;37.716;-122.060;2023-01-27T12:26:58;100931.81;;;13.20;35.08
51053;BME280;37093;37.716;-122.060;2023-01-27T12:29:32;100932.52;;;13.32;35.09
51053;BME280;37093;37.716;-122.060;2023-01-27T12:32:14;100937.91;;;13.22;35.00
51053;BME280;37093;37.716;-122.060;2023-01-27T12:34:46;100937.48;;;13.11;35.13
51053;BME280;37093;37.716;-122.060;2023-01-27T12:37:22;100933.31;;;13.08;35.37
51053;BME280;37093;37.716;-122.060;2023-01-27T12:39:55;100926.75;;;12.90;35.78
51053;BME280;37093;37.716;-122.060;2023-01-27T12:42:41;100925.98;;;12.75;35.99